Time;durP1;ratioP1;P1;durP2;ratioP2;P2;SDS_P1;SDS_P2;PMS_P1;PMS_P2;Temp;Humidity;BMP_temperature;BMP_pressure;BME280_temperature;BME280_humidity;BME280_pressure;Samples;Min_cycle;Max_cycle;Signal;HPM_P1;HPM_P2
2022/12/05 00:02:56;;;;;;;60.83;35.55;;;;;;;2.70;100.00;101877.13;10379927;28;20466;-69
2022/12/05 00:07:57;;;;;;;62.72;35.90;;;;;;;2.68;100.00;101884.41;10380436;28;20168;-69
2022/12/05 00:12:57;;;;;;;57.60;32.47;;;;;;;2.68;100.00;101879.06;10381403;28;20041;-69
2022/12/05 00:17:57;;;;;;;50.70;30.08;;;;;;;2.74;100.00;101870.56;10396338;28;20462;-69
2022/12/05 00:22:58;;;;;;;50.22;31.77;;;;;;;2.76;100.00;101871.28;10380572;28;20108;-69
2022/12/05 00:27:58;;;;;;;59.47;34.63;;;;;;;2.72;100.00;101872.50;10362618;28;20042;-69
2022/12/05 00:32:59;;;;;;;53.55;30.33;;;;;;;2.80;100.00;101878.94;10362423;28;20026;-68
2022/12/05 00:37:59;;;;;;;45.67;30.75;;;;;;;2.89;100.00;101872.00;10379880;28;20081;-68
2022/12/05 00:43:00;;;;;;;60.85;32.88;;;;;;;2.93;100.00;101876.13;10379640;28;20037;-68
2022/12/05 00:48:00;;;;;;;52.55;30.98;;;;;;;2.91;100.00;101879.91;10378978;28;20041;-69
2022/12/05 00:53:00;;;;;;;41.95;27.73;;;;;;;2.96;100.00;101877.69;10378282;28;20034;-68
2022/12/05 00:58:01;;;;;;;59.05;30.20;;;;;;;3.01;100.00;101879.03;10378009;28;20496;-69
2022/12/05 01:03:01;;;;;;;50.53;27.38;;;;;;;3.02;100.00;101871.84;10378970;28;20037;-69
2022/12/05 01:08:02;;;;;;;46.42;28.95;;;;;;;3.06;100.00;101884.00;10378497;28;20034;-69
2022/12/05 01:13:02;;;;;;;39.85;26.52;;;;;;;3.09;100.00;101882.91;10378568;28;20026;-69
2022/12/05 01:18:02;;;;;;;44.03;29.48;;;;;;;3.08;100.00;101875.88;10377761;28;20030;-68
2022/12/05 01:23:03;;;;;;;36.42;25.63;;;;;;;3.07;100.00;101877.69;10377305;28;20054;-67
2022/12/05 01:28:03;;;;;;;39.40;24.33;;;;;;;3.11;100.00;101880.97;10378046;28;20033;-69
2022/12/05 01:33:04;;;;;;;56.05;29.42;;;;;;;3.06;100.00;101872.47;10380931;28;20110;-69
2022/12/05 01:38:04;;;;;;;36.05;25.00;;;;;;;3.16;100.00;101884.09;10376542;28;20454;-68
2022/12/05 01:43:16;;;;;;;47.75;31.58;;;;;;;3.14;100.00;101883.41;10376822;28;20541;-68
2022/12/05 01:48:19;;;;;;;45.63;28.33;;;;;;;3.13;100.00;101885.22;10376598;28;20373;-69
2022/12/05 01:53:20;;;;;;;46.65;26.60;;;;;;;3.12;100.00;101885.34;10375431;28;20034;-69
2022/12/05 01:58:20;;;;;;;38.13;25.90;;;;;;;3.20;100.00;101880.22;10359112;28;20026;-70
2022/12/05 02:03:20;;;;;;;45.05;24.98;;;;;;;3.18;100.00;101877.66;10375056;28;20038;-70
2022/12/05 02:08:21;;;;;;;55.42;28.58;;;;;;;3.23;100.00;101874.63;10374645;28;20409;-69
2022/12/05 02:13:39;;;;;;;42.35;26.58;;;;;;;3.28;100.00;101884.94;10358839;28;20156;-70
2022/12/05 02:18:55;;;;;;;30.83;23.08;;;;;;;3.31;100.00;101882.84;10375240;28;20026;-71
2022/12/05 02:24:23;;;;;;;43.22;24.40;;;;;;;3.35;100.00;101878.97;10375016;28;20033;-69
2022/12/05 02:29:57;;;;;;;39.95;24.73;;;;;;;3.37;100.00;101879.69;10376327;28;20064;-69
2022/12/05 02:35:08;;;;;;;40.92;24.58;;;;;;;3.40;100.00;101882.09;10389261;28;20401;-70
2022/12/05 02:40:33;;;;;;;37.97;25.15;;;;;;;3.35;100.00;101872.75;10377469;28;20433;-70
2022/12/05 02:45:34;;;;;;;47.05;29.15;;;;;;;3.38;100.00;101883.19;10377984;28;20034;-69
2022/12/05 02:50:35;;;;;;;41.97;26.08;;;;;;;3.39;100.00;101876.88;10376917;28;20026;-70
2022/12/05 02:55:35;;;;;;;36.97;25.77;;;;;;;3.39;100.00;101885.78;10378731;28;20048;-69
2022/12/05 03:00:37;;;;;;;42.53;26.63;;;;;;;3.41;100.00;101888.31;10375906;28;20044;-69
2022/12/05 03:05:50;;;;;;;45.10;27.73;;;;;;;3.39;100.00;101896.47;10376211;28;20053;-69
2022/12/05 03:10:50;;;;;;;45.10;27.33;;;;;;;3.43;100.00;101892.56;10373361;28;20113;-69
2022/12/05 03:15:54;;;;;;;40.72;24.38;;;;;;;3.44;100.00;101880.88;10373761;28;20538;-69
2022/12/05 03:21:33;;;;;;;42.53;25.25;;;;;;;3.47;100.00;101888.66;10390475;28;20046;-71
2022/12/05 03:27:12;;;;;;;39.95;25.73;;;;;;;3.43;100.00;101887.22;10374901;28;20026;-69
2022/12/05 03:32:31;;;;;;;36.58;24.38;;;;;;;3.44;100.00;101894.25;10375820;28;20030;-68
2022/12/05 03:37:40;;;;;;;38.13;24.40;;;;;;;3.42;100.00;101884.66;10382596;28;20793;-69
2022/12/05 03:42:45;;;;;;;37.45;24.48;;;;;;;3.42;100.00;101896.22;10381125;28;20450;-69
2022/12/05 03:48:08;;;;;;;40.25;24.35;;;;;;;3.33;100.00;101904.16;10382117;28;20038;-69
2022/12/05 03:53:12;;;;;;;45.92;26.95;;;;;;;3.39;100.00;101909.88;10383960;28;20477;-67
2022/12/05 03:58:26;;;;;;;36.25;27.63;;;;;;;3.42;100.00;101908.78;10380029;28;20056;-68
2022/12/05 04:03:50;;;;;;;37.03;24.95;;;;;;;3.43;100.00;101910.47;10380477;28;20424;-68
2022/12/05 04:08:53;;;;;;;42.58;25.42;;;;;;;3.50;100.00;101908.97;10380390;28;20029;-68
2022/12/05 04:13:57;;;;;;;39.28;25.85;;;;;;;3.52;100.00;101917.75;10380016;28;20454;-68
2022/12/05 04:19:00;;;;;;;38.60;24.08;;;;;;;3.57;100.00;101915.50;10363522;28;20469;-68
2022/12/05 04:29:34;;;;;;;46.45;26.73;;;;;;;3.70;100.00;101918.91;10392460;28;20026;-68
2022/12/05 04:34:34;;;;;;;38.28;23.85;;;;;;;3.76;100.00;101911.31;10381583;28;20080;-68
2022/12/05 04:39:52;;;;;;;39.90;25.88;;;;;;;3.76;100.00;101908.63;10395479;28;20030;-68
2022/12/05 04:44:53;;;;;;;35.13;22.70;;;;;;;3.78;100.00;101904.00;10380124;28;20048;-68
2022/12/05 04:49:54;;;;;;;37.28;23.70;;;;;;;3.78;100.00;101917.41;10378076;28;20026;-68
2022/12/05 04:55:11;;;;;;;33.97;21.52;;;;;;;3.77;100.00;101919.22;10379440;28;20030;-68
2022/12/05 05:00:11;;;;;;;32.63;24.23;;;;;;;3.83;100.00;101910.69;10379444;28;20033;-68
2022/12/05 05:05:13;;;;;;;33.55;21.52;;;;;;;3.84;100.00;101920.41;10393730;28;20037;-68
2022/12/05 05:10:15;;;;;;;42.05;26.05;;;;;;;3.85;100.00;101918.59;10377971;28;20108;-68
2022/12/05 05:15:15;;;;;;;33.08;22.50;;;;;;;3.91;100.00;101908.19;10377708;28;20361;-68
2022/12/05 05:20:26;;;;;;;41.55;25.13;;;;;;;3.94;100.00;101921.34;10378572;28;20054;-68
2022/12/05 05:25:26;;;;;;;35.92;24.20;;;;;;;4.03;100.00;101921.56;10379551;28;20420;-68
2022/12/05 05:30:26;;;;;;;40.53;26.25;;;;;;;4.03;100.00;101927.75;10378665;28;20083;-68
2022/12/05 05:35:27;;;;;;;44.10;26.40;;;;;;;4.09;100.00;101923.72;10377362;28;20057;-68
2022/12/05 05:40:27;;;;;;;42.63;23.80;;;;;;;4.12;100.00;101920.78;10361268;28;20061;-68
2022/12/05 05:45:28;;;;;;;40.88;24.25;;;;;;;4.15;100.00;101933.91;10377746;28;20025;-68
2022/12/05 05:50:28;;;;;;;33.03;22.50;;;;;;;4.18;100.00;101939.03;10377091;28;20410;-68
2022/12/05 05:55:29;;;;;;;37.83;23.50;;;;;;;4.22;100.00;101937.78;10375778;28;20472;-68
2022/12/05 06:00:29;;;;;;;35.67;22.27;;;;;;;4.28;100.00;101933.72;10377520;28;20113;-68
2022/12/05 06:05:29;;;;;;;33.88;19.55;;;;;;;4.29;100.00;101940.78;10376896;28;20116;-68
2022/12/05 06:10:30;;;;;;;44.33;25.27;;;;;;;4.31;100.00;101937.00;10376528;28;20115;-68
2022/12/05 06:15:30;;;;;;;43.63;25.92;;;;;;;4.36;100.00;101940.09;10376822;28;20037;-68
2022/12/05 06:20:31;;;;;;;38.25;24.70;;;;;;;4.43;100.00;101941.31;10375975;28;20046;-68
2022/12/05 06:25:31;;;;;;;43.45;25.63;;;;;;;4.44;100.00;101947.50;10376714;28;20049;-68
2022/12/05 06:30:31;;;;;;;43.58;25.80;;;;;;;4.48;100.00;101948.09;10376148;28;20033;-68
2022/12/05 06:35:32;;;;;;;38.35;25.20;;;;;;;4.50;100.00;101947.00;10391585;28;20076;-68
2022/12/05 06:40:32;;;;;;;38.95;26.42;;;;;;;4.53;100.00;101948.53;10375333;28;20132;-69
2022/12/05 06:45:33;;;;;;;35.42;24.08;;;;;;;4.58;100.00;101949.00;10373666;28;20117;-69
2022/12/05 06:50:33;;;;;;;43.30;22.70;;;;;;;4.60;100.00;101953.25;10374256;28;20030;-68
2022/12/05 06:55:34;;;;;;;35.60;23.38;;;;;;;4.64;100.00;101952.00;10374396;28;20038;-68
2022/12/05 07:05:53;;;;;;;41.20;22.15;;;;;;;4.64;100.00;101967.25;10374974;28;20042;-68
2022/12/05 07:10:54;;;;;;;40.30;25.90;;;;;;;4.68;100.00;101966.00;10390654;28;20034;-68
2022/12/05 07:15:54;;;;;;;42.60;21.20;;;;;;;4.72;100.00;101972.78;10374962;28;20045;-68
2022/12/05 07:20:59;;;;;;;29.70;20.83;;;;;;;4.71;100.00;101981.81;10372835;28;20060;-69
2022/12/05 07:26:04;;;;;;;45.17;23.67;;;;;;;4.78;100.00;101974.09;10374824;28;20381;-68
2022/12/05 07:31:06;;;;;;;38.90;22.75;;;;;;;4.82;100.00;101981.75;10389973;28;20128;-68
2022/12/05 07:36:09;;;;;;;25.90;20.10;;;;;;;4.87;100.00;101992.94;10374252;28;20037;-68
2022/12/05 07:41:27;;;;;;;25.50;19.45;;;;;;;4.89;100.00;101988.28;10372715;28;20371;-68
2022/12/05 07:46:27;;;;;;;37.95;22.23;;;;;;;4.92;100.00;101994.38;10386612;28;20492;-68
2022/12/05 07:51:28;;;;;;;30.05;22.08;;;;;;;4.89;100.00;101993.66;10373639;28;20037;-68
2022/12/05 07:56:28;;;;;;;26.27;19.23;;;;;;;4.96;100.00;101988.59;10389992;28;20038;-67
2022/12/05 08:01:29;;;;;;;27.40;18.67;;;;;;;4.96;100.00;101998.50;10373814;28;20359;-68
2022/12/05 08:06:29;;;;;;;21.00;16.25;;;;;;;4.97;100.00;102003.72;10374992;28;20037;-68
2022/12/05 08:11:34;;;;;;;31.75;16.98;;;;;;;5.02;100.00;101995.28;10388695;28;20478;-68
2022/12/05 08:16:34;;;;;;;25.48;16.10;;;;;;;5.06;100.00;102004.75;10388136;28;20113;-70
2022/12/05 08:21:35;;;;;;;19.38;15.00;;;;;;;5.10;100.00;102000.81;10378751;28;20149;-68
2022/12/05 08:26:35;;;;;;;14.98;12.90;;;;;;;5.18;100.00;102005.50;10380452;28;20095;-68
2022/12/05 08:31:39;;;;;;;14.98;12.60;;;;;;;5.17;100.00;102003.78;10362635;28;20042;-68
2022/12/05 08:36:40;;;;;;;17.45;12.98;;;;;;;5.20;100.00;102009.78;10363522;28;20030;-68
2022/12/05 08:41:41;;;;;;;16.95;12.60;;;;;;;5.25;100.00;102020.09;10394821;28;20068;-68
2022/12/05 08:46:42;;;;;;;16.95;12.02;;;;;;;5.24;100.00;102019.25;10379821;28;20390;-68
2022/12/05 08:51:42;;;;;;;20.00;12.60;;;;;;;5.29;100.00;102024.19;10378031;28;20030;-68
2022/12/05 08:56:43;;;;;;;14.50;10.60;;;;;;;5.30;100.00;102026.78;10394525;28;20331;-68
2022/12/05 09:01:44;;;;;;;15.93;11.73;;;;;;;5.34;100.00;102038.94;10379320;28;20061;-68
2022/12/05 09:06:44;;;;;;;22.35;10.85;;;;;;;5.39;100.00;102040.34;10362465;28;20057;-68
2022/12/05 09:11:49;;;;;;;13.85;9.00;;;;;;;5.41;100.00;102033.88;10377893;28;20034;-68
2022/12/05 09:16:49;;;;;;;12.05;9.20;;;;;;;5.41;100.00;102039.25;10378640;28;20050;-68
2022/12/05 09:21:50;;;;;;;12.32;9.13;;;;;;;5.41;100.00;102044.59;10394341;28;20054;-68
2022/12/05 09:26:50;;;;;;;12.98;8.48;;;;;;;5.47;100.00;102053.97;10361276;28;20073;-68
2022/12/05 09:31:52;;;;;;;10.48;9.45;;;;;;;5.50;100.00;102054.53;10376575;28;20386;-68
2022/12/05 09:36:53;;;;;;;10.98;9.07;;;;;;;5.57;100.00;102057.53;10377512;28;20045;-68
2022/12/05 09:42:08;;;;;;;8.20;7.35;;;;;;;5.55;100.00;102062.19;10377424;28;20065;-68
2022/12/05 09:47:27;;;;;;;13.90;8.45;;;;;;;5.56;100.00;102070.13;10377100;28;20034;-68
2022/12/05 09:52:32;;;;;;;10.27;7.88;;;;;;;5.64;100.00;102072.13;10377265;28;20085;-68
2022/12/05 09:57:35;;;;;;;8.77;7.90;;;;;;;5.64;100.00;102077.50;10376838;28;20127;-68
2022/12/05 10:02:54;;;;;;;8.88;6.53;;;;;;;5.63;100.00;102065.06;10375872;28;20038;-68
2022/12/05 10:08:00;;;;;;;7.72;6.93;;;;;;;5.62;100.00;102063.38;10391185;28;20105;-68
2022/12/05 10:13:16;;;;;;;;;;;;;;;5.64;100.00;102065.91;10391071;28;20465;-68
2022/12/05 10:18:38;;;;;;;9.88;6.85;;;;;;;5.64;100.00;102072.13;10391048;28;19917;-68
2022/12/05 10:24:04;;;;;;;9.65;7.28;;;;;;;5.68;100.00;102073.56;10376758;28;20145;-69
2022/12/05 10:29:24;;;;;;;10.07;7.93;;;;;;;5.73;100.00;102070.47;10374709;28;20034;-68
2022/12/05 10:34:36;;;;;;;8.85;8.00;;;;;;;5.77;100.00;102078.09;10390085;28;20037;-68
2022/12/05 10:39:37;;;;;;;10.07;7.88;;;;;;;5.76;100.00;102073.72;10375002;28;20069;-68
2022/12/05 10:44:38;;;;;;;9.55;8.65;;;;;;;5.76;100.00;102062.97;10357129;28;20034;-68
2022/12/05 10:49:38;;;;;;;9.23;8.10;;;;;;;5.74;100.00;102069.47;10390134;28;20124;-68
2022/12/05 10:55:03;;;;;;;8.68;7.75;;;;;;;5.78;100.00;102068.22;10373834;28;20092;-68
2022/12/05 11:00:12;;;;;;;13.23;7.35;;;;;;;5.75;100.00;102066.66;10375545;28;20029;-68
2022/12/05 11:05:12;;;;;;;10.73;7.25;;;;;;;5.68;100.00;102065.50;10373195;28;20025;-68
2022/12/05 11:10:19;;;;;;;11.00;7.50;;;;;;;5.68;100.00;102062.81;10374155;28;20121;-68
2022/12/05 11:15:23;;;;;;;10.32;6.45;;;;;;;5.69;100.00;102055.59;10374322;28;20057;-68
2022/12/05 11:20:23;;;;;;;9.05;6.38;;;;;;;5.77;100.00;102070.03;10374165;28;20050;-68
2022/12/05 11:25:27;;;;;;;14.50;7.68;;;;;;;5.78;100.00;102062.84;10374548;28;20121;-68
2022/12/05 11:30:28;;;;;;;12.13;8.00;;;;;;;5.81;100.00;102073.31;10373191;28;20453;-68
2022/12/05 11:35:28;;;;;;;11.40;8.90;;;;;;;5.88;100.00;102060.19;10371952;28;20083;-68
2022/12/05 11:40:40;;;;;;;13.18;9.00;;;;;;;5.96;100.00;102060.34;10372402;28;20100;-69
2022/12/05 11:45:49;;;;;;;11.23;7.95;;;;;;;5.88;100.00;102061.03;10372547;28;20482;-68
2022/12/05 11:51:12;;;;;;;9.13;8.05;;;;;;;5.91;100.00;102055.38;10373115;28;20026;-67
2022/12/05 11:56:20;;;;;;;9.73;7.18;;;;;;;5.94;100.00;102057.81;10394439;28;20509;-68
2022/12/05 12:01:44;;;;;;;8.05;7.20;;;;;;;5.92;100.00;102062.44;10396536;28;20397;-68
2022/12/05 12:07:03;;;;;;;9.45;8.55;;;;;;;5.95;100.00;102061.34;10381597;28;20137;-67
2022/12/05 12:12:11;;;;;;;14.68;8.07;;;;;;;6.06;100.00;102055.81;10380254;28;20386;-68
2022/12/05 12:17:22;;;;;;;17.15;8.52;;;;;;;6.14;100.00;102055.16;10379776;28;20034;-68
2022/12/05 12:22:48;;;;;;;15.50;9.02;;;;;;;6.10;100.00;102062.66;10381632;28;20057;-68
2022/12/05 12:27:54;;;;;;;12.33;9.13;;;;;;;6.08;100.00;102059.25;10380437;28;20046;-69
2022/12/05 12:33:02;;;;;;;10.18;6.95;;;;;;;5.98;100.00;102053.84;10380166;28;20029;-68
2022/12/05 12:38:06;;;;;;;14.70;7.47;;;;;;;6.00;100.00;102056.41;10379400;28;20033;-68
2022/12/05 12:43:44;;;;;;;10.88;7.43;;;;;;;6.00;100.00;102051.88;10380114;28;20037;-67
2022/12/05 12:49:13;;;;;;;10.07;7.68;;;;;;;5.93;100.00;102052.56;10376513;28;20048;-68
2022/12/05 12:54:16;;;;;;;9.00;7.00;;;;;;;5.94;100.00;102049.75;10378475;28;20056;-68
2022/12/05 12:59:42;;;;;;;15.25;8.63;;;;;;;6.05;100.00;102046.91;10378216;28;20489;-68
2022/12/05 13:04:52;;;;;;;10.80;7.15;;;;;;;6.06;100.00;102047.75;10377749;28;20124;-67
2022/12/05 13:10:01;;;;;;;12.52;8.60;;;;;;;6.03;100.00;102042.66;10378107;28;20026;-68
2022/12/05 13:15:22;;;;;;;8.90;7.90;;;;;;;6.00;100.00;102048.34;10379252;28;20528;-68
2022/12/05 13:20:22;;;;;;;13.40;10.20;;;;;;;6.06;100.00;102045.06;10360562;28;20147;-68
2022/12/05 13:25:24;;;;;;;16.70;9.85;;;;;;;6.01;100.00;102036.59;10376837;28;20084;-68
2022/12/05 13:30:26;;;;;;;19.05;10.20;;;;;;;6.10;100.00;102040.28;10360782;28;20026;-68
2022/12/05 13:46:10;;;;;;;13.15;10.45;;;;;;;6.15;100.00;102035.31;10376519;28;20034;-67
2022/12/05 13:51:21;;;;;;;16.40;11.10;;;;;;;6.18;100.00;102038.56;10359603;28;20061;-68
2022/12/05 13:56:57;;;;;;;12.18;9.27;;;;;;;6.23;100.00;102036.31;10376679;28;20026;-68
2022/12/05 14:01:57;;;;;;;16.65;11.55;;;;;;;6.31;100.00;102042.84;10378081;28;20050;-68
2022/12/05 14:06:58;;;;;;;19.00;12.65;;;;;;;6.28;100.00;102039.41;10391923;28;20034;-68
2022/12/05 14:12:13;;;;;;;12.45;9.95;;;;;;;6.31;100.00;102049.06;10376510;28;20127;-68
2022/12/05 14:17:14;;;;;;;18.85;10.73;;;;;;;6.28;100.00;102042.09;10375994;28;20389;-67
2022/12/05 14:22:32;;;;;;;14.02;10.63;;;;;;;6.30;100.00;102052.75;10375333;28;20060;-68
2022/12/05 14:27:59;;;;;;;14.63;10.48;;;;;;;6.29;100.00;102045.69;10376489;28;20394;-68
2022/12/05 14:32:59;;;;;;;11.73;8.38;;;;;;;6.31;100.00;102058.97;10390223;28;20029;-68
2022/12/05 14:38:03;;;;;;;9.25;6.97;;;;;;;6.22;100.00;102044.53;10390023;28;20029;-67
2022/12/05 14:43:06;;;;;;;17.77;8.88;;;;;;;6.18;100.00;102054.72;10373624;28;20133;-67
2022/12/05 14:48:12;;;;;;;13.32;8.70;;;;;;;6.16;100.00;102053.16;10389480;28;20044;-68
2022/12/05 14:53:31;;;;;;;22.75;10.23;;;;;;;6.16;100.00;102050.47;10373951;28;20033;-67
2022/12/05 14:58:45;;;;;;;10.15;8.98;;;;;;;6.15;100.00;102059.53;10374644;28;20033;-68
2022/12/05 15:03:57;;;;;;;15.20;9.30;;;;;;;6.15;100.00;102063.06;10374689;28;20115;-67
2022/12/05 15:08:58;;;;;;;13.30;7.28;;;;;;;6.12;100.00;102078.63;10373720;28;20033;-68
2022/12/05 15:14:12;;;;;;;10.05;7.85;;;;;;;6.10;100.00;102080.63;10372357;28;20042;-68
2022/12/05 15:19:28;;;;;;;12.40;7.60;;;;;;;6.05;100.00;102078.34;10357330;28;20050;-67
2022/12/05 15:24:36;;;;;;;11.90;8.43;;;;;;;6.07;100.00;102084.44;10372679;28;20348;-67
2022/12/05 15:29:36;;;;;;;10.82;8.13;;;;;;;6.09;100.00;102086.97;10394122;28;20045;-68
2022/12/05 15:35:01;;;;;;;8.98;6.90;;;;;;;6.02;100.00;102086.69;10381588;28;20393;-68
2022/12/05 15:40:07;;;;;;;12.85;7.18;;;;;;;6.02;100.00;102092.06;10381943;28;20409;-68
2022/12/05 15:45:10;;;;;;;11.65;8.40;;;;;;;6.05;100.00;102092.63;10381644;28;20026;-68
2022/12/05 15:50:15;;;;;;;7.65;6.85;;;;;;;6.04;100.00;102096.31;10382095;28;20037;-68
2022/12/05 15:55:19;;;;;;;11.95;6.13;;;;;;;6.02;100.00;102097.44;10381486;28;20037;-68
2022/12/05 16:00:21;;;;;;;15.45;7.90;;;;;;;6.03;100.00;102102.69;10396050;28;20065;-68
2022/12/05 16:05:28;;;;;;;10.02;7.30;;;;;;;5.98;100.00;102101.41;10380513;28;20488;-68
2022/12/05 16:10:29;;;;;;;8.77;7.22;;;;;;;5.93;100.00;102098.25;10379450;28;20099;-68
2022/12/05 16:15:29;;;;;;;10.45;8.43;;;;;;;5.96;100.00;102106.91;10395817;28;20124;-68
2022/12/05 16:20:34;;;;;;;9.57;8.20;;;;;;;5.97;100.00;102102.41;10395340;28;20088;-68
2022/12/05 16:25:35;;;;;;;12.80;7.43;;;;;;;6.00;100.00;102102.13;10396109;28;20033;-67
2022/12/05 16:30:35;;;;;;;11.75;6.45;;;;;;;6.04;100.00;102106.22;10380326;28;20092;-68
2022/12/05 16:35:35;;;;;;;9.45;6.63;;;;;;;6.01;100.00;102104.66;10379317;28;20061;-68
2022/12/05 16:40:37;;;;;;;11.48;7.00;;;;;;;6.08;100.00;102109.50;10378819;28;20037;-68
2022/12/05 16:45:42;;;;;;;8.43;5.93;;;;;;;6.03;100.00;102104.50;10362827;28;20272;-68
2022/12/05 16:50:43;;;;;;;11.55;5.97;;;;;;;6.01;100.00;102101.97;10378149;28;20041;-68
2022/12/05 16:55:43;;;;;;;10.05;6.60;;;;;;;6.02;100.00;102100.97;10394061;28;20045;-68
2022/12/05 17:00:44;;;;;;;6.30;5.00;;;;;;;6.00;100.00;102102.97;10378862;28;20030;-68
2022/12/05 17:05:44;;;;;;;12.40;5.60;;;;;;;5.98;100.00;102106.78;10394453;28;20485;-68
2022/12/05 17:10:45;;;;;;;7.15;6.05;;;;;;;5.95;100.00;102109.75;10394529;28;20382;-68
2022/12/05 17:15:45;;;;;;;5.72;5.13;;;;;;;5.88;100.00;102106.72;10378672;28;20070;-68
2022/12/05 17:20:49;;;;;;;8.63;5.05;;;;;;;5.89;100.00;102107.56;10377689;28;20050;-68
2022/12/05 17:25:51;;;;;;;5.90;4.32;;;;;;;5.83;100.00;102109.81;10376471;28;20037;-68
2022/12/05 17:30:51;;;;;;;9.38;5.32;;;;;;;5.89;100.00;102107.56;10377845;28;20025;-68
2022/12/05 17:35:52;;;;;;;9.50;6.60;;;;;;;5.91;100.00;102117.19;10377744;28;20041;-68
2022/12/05 17:40:52;;;;;;;6.07;5.30;;;;;;;5.93;100.00;102127.84;10377885;28;20034;-68
2022/12/05 17:45:53;;;;;;;6.28;5.10;;;;;;;5.94;100.00;102126.88;10376227;28;20034;-68
2022/12/05 17:50:56;;;;;;;7.53;5.65;;;;;;;5.98;100.00;102134.50;10375890;28;20034;-68
2022/12/05 17:55:56;;;;;;;8.88;6.00;;;;;;;6.04;100.00;102141.19;10376221;28;20034;-68
2022/12/05 18:00:57;;;;;;;8.93;7.32;;;;;;;6.08;100.00;102139.06;10376757;28;20029;-68
2022/12/05 18:05:57;;;;;;;12.52;7.65;;;;;;;6.10;100.00;102146.00;10359762;28;20553;-68
2022/12/05 18:10:58;;;;;;;16.73;7.40;;;;;;;6.12;100.00;102141.31;10375133;28;20516;-67
2022/12/05 18:16:00;;;;;;;11.73;8.52;;;;;;;6.11;100.00;102133.41;10375624;28;20073;-68
2022/12/05 18:21:07;;;;;;;17.40;7.72;;;;;;;6.13;100.00;102136.81;10375082;28;20104;-68
2022/12/05 18:26:08;;;;;;;11.55;7.70;;;;;;;6.11;100.00;102136.94;10376290;28;20049;-69
2022/12/05 18:31:10;;;;;;;7.25;6.53;;;;;;;6.10;100.00;102142.47;10373857;28;20041;-68
2022/12/05 18:36:14;;;;;;;14.23;7.10;;;;;;;6.04;100.00;102138.50;10375494;28;20033;-68
2022/12/05 18:41:14;;;;;;;11.02;6.35;;;;;;;6.01;100.00;102141.47;10374521;28;20038;-68
2022/12/05 18:46:15;;;;;;;13.95;6.57;;;;;;;6.01;100.00;102146.84;10373669;28;20446;-68
2022/12/05 18:51:20;;;;;;;8.32;6.28;;;;;;;6.03;100.00;102148.41;10375281;28;20033;-68
2022/12/05 18:56:25;;;;;;;8.25;5.63;;;;;;;6.08;100.00;102160.59;10374345;28;20022;-68
2022/12/05 19:01:25;;;;;;;14.80;6.57;;;;;;;6.03;100.00;102160.97;10373779;28;20037;-68
2022/12/05 19:06:28;;;;;;;10.07;6.20;;;;;;;6.00;100.00;102155.91;10373768;28;20030;-68
2022/12/05 19:11:29;;;;;;;9.70;6.93;;;;;;;6.03;100.00;102167.22;10376830;28;20033;-68
2022/12/05 19:16:30;;;;;;;6.70;6.07;;;;;;;6.05;100.00;102167.94;10375328;28;20033;-68
2022/12/05 19:21:31;;;;;;;8.40;5.50;;;;;;;6.09;100.00;102179.25;10389638;28;20050;-68
2022/12/05 19:26:32;;;;;;;9.07;5.65;;;;;;;6.08;100.00;102180.25;10374404;28;20030;-67
2022/12/05 19:31:34;;;;;;;6.68;5.80;;;;;;;6.12;100.00;102180.81;10372928;28;20052;-68
2022/12/05 19:36:39;;;;;;;7.57;4.95;;;;;;;6.13;100.00;102178.00;10372741;28;20053;-68
2022/12/05 19:41:40;;;;;;;8.50;5.60;;;;;;;6.18;100.00;102182.97;10374317;28;20088;-68
2022/12/05 19:46:40;;;;;;;12.75;6.15;;;;;;;6.16;100.00;102177.75;10375175;28;20115;-68
2022/12/05 19:51:41;;;;;;;9.18;6.00;;;;;;;6.20;100.00;102181.00;10355775;28;20379;-68
2022/12/05 19:56:41;;;;;;;15.25;6.68;;;;;;;6.19;100.00;102184.66;10355768;28;20064;-70
2022/12/05 20:01:42;;;;;;;10.88;6.25;;;;;;;6.16;100.00;102187.63;10372315;28;20042;-67
2022/12/05 20:06:47;;;;;;;11.45;4.90;;;;;;;6.22;100.00;102190.66;10388889;28;20033;-68
2022/12/05 20:11:50;;;;;;;13.77;7.05;;;;;;;6.25;100.00;102198.44;10371510;28;20204;-68
2022/12/05 20:16:51;;;;;;;10.95;7.18;;;;;;;6.24;100.00;102196.72;10377346;28;20080;-67
2022/12/05 20:21:54;;;;;;;9.38;5.57;;;;;;;6.26;100.00;102201.97;10381336;28;20417;-69
2022/12/05 20:26:54;;;;;;;10.63;6.15;;;;;;;6.24;100.00;102191.34;10379074;28;20373;-69
2022/12/05 20:31:56;;;;;;;6.60;5.35;;;;;;;6.24;100.00;102182.41;10395359;28;20037;-68
2022/12/05 20:36:57;;;;;;;8.15;5.65;;;;;;;6.22;100.00;102181.69;10381740;28;20037;-80
2022/12/05 20:41:57;;;;;;;9.15;5.95;;;;;;;6.18;100.00;102173.06;10379755;28;20030;-68
2022/12/05 20:46:58;;;;;;;15.18;6.57;;;;;;;6.09;100.00;102181.94;10379542;28;20034;-68
2022/12/05 20:51:58;;;;;;;8.07;6.63;;;;;;;6.00;100.00;102172.88;10379447;28;20061;-69
2022/12/05 20:56:59;;;;;;;9.70;6.18;;;;;;;5.95;100.00;102180.50;10378974;28;20382;-68
2022/12/05 21:01:59;;;;;;;12.93;6.15;;;;;;;5.90;100.00;102169.25;10376909;28;20026;-72
2022/12/05 21:06:59;;;;;;;9.18;5.75;;;;;;;5.90;100.00;102179.16;10379340;28;20081;-68
2022/12/05 21:12:00;;;;;;;8.32;5.93;;;;;;;5.90;100.00;102179.16;10377723;28;20034;-70
2022/12/05 21:17:00;;;;;;;7.15;6.45;;;;;;;5.90;100.00;102190.75;10377887;28;20168;-68
2022/12/05 21:22:01;;;;;;;12.02;6.78;;;;;;;5.87;100.00;102184.81;10379222;28;20116;-68
2022/12/05 21:27:01;;;;;;;19.05;6.72;;;;;;;5.88;100.00;102175.78;10378085;28;20053;-69
2022/12/05 21:32:02;;;;;;;9.65;5.50;;;;;;;5.88;100.00;102181.16;10376098;28;20037;-71
2022/12/05 21:37:02;;;;;;;5.97;5.30;;;;;;;5.86;100.00;102175.88;10376434;28;20081;-68
2022/12/05 21:42:02;;;;;;;9.20;7.18;;;;;;;5.89;100.00;102181.00;10393258;28;20030;-68
2022/12/05 21:47:03;;;;;;;13.85;6.50;;;;;;;5.90;100.00;102187.22;10378956;28;20066;-66
2022/12/05 21:52:03;;;;;;;9.70;5.55;;;;;;;5.92;100.00;102174.50;10377035;28;20466;-71
2022/12/05 21:57:04;;;;;;;16.60;6.40;;;;;;;5.89;100.00;102186.38;10376848;28;20038;-68
2022/12/05 22:02:04;;;;;;;14.82;5.57;;;;;;;5.88;100.00;102189.22;10377342;28;20060;-67
2022/12/05 22:07:05;;;;;;;9.60;5.82;;;;;;;5.78;100.00;102198.09;10377371;28;20066;-67
2022/12/05 22:12:05;;;;;;;7.95;6.40;;;;;;;5.75;100.00;102197.50;10376506;28;20061;-68
2022/12/05 22:17:05;;;;;;;6.00;5.40;;;;;;;5.71;100.00;102196.03;10376373;28;20131;-68
2022/12/05 22:22:06;;;;;;;10.38;5.97;;;;;;;5.51;100.00;102198.63;10375926;28;20085;-68
2022/12/05 22:27:06;;;;;;;7.88;6.13;;;;;;;5.29;100.00;102194.25;10377752;28;20049;-68
2022/12/05 22:32:07;;;;;;;8.05;6.32;;;;;;;5.11;100.00;102196.69;10375727;28;20076;-66
2022/12/05 22:37:07;;;;;;;7.28;5.72;;;;;;;5.06;100.00;102193.53;10375576;28;20037;-67
2022/12/05 22:42:07;;;;;;;9.70;7.20;;;;;;;4.90;100.00;102196.66;10376117;28;20489;-67
2022/12/05 22:47:08;;;;;;;13.63;7.88;;;;;;;4.64;100.00;102196.16;10391668;28;20061;-67
2022/12/05 22:52:08;;;;;;;17.00;6.50;;;;;;;4.42;100.00;102194.38;10390307;28;20041;-68
2022/12/05 22:57:08;;;;;;;10.20;6.95;;;;;;;4.32;100.00;102196.09;10375340;28;20034;-68
2022/12/05 23:02:09;;;;;;;27.15;7.22;;;;;;;4.24;100.00;102189.66;10375261;28;20038;-68
2022/12/05 23:07:09;;;;;;;16.70;7.30;;;;;;;4.16;100.00;102191.13;10374243;28;20034;-67
2022/12/05 23:12:10;;;;;;;11.07;7.45;;;;;;;4.12;100.00;102186.16;10372818;28;20125;-67
2022/12/05 23:17:10;;;;;;;19.77;9.00;;;;;;;4.13;100.00;102185.19;10374540;28;20077;-67
2022/12/05 23:22:11;;;;;;;11.50;7.70;;;;;;;4.17;100.00;102178.56;10373804;28;20062;-67